createdAt,value
2022-10-23T00:01:22.955Z,101513.69
2022-10-23T00:03:55.315Z,101505.84
2022-10-23T00:06:22.129Z,101511.06
2022-10-23T00:08:48.767Z,101501.59
2022-10-23T00:11:19.162Z,101506.81
2022-10-23T00:13:46.881Z,101510.31
2022-10-23T00:16:13.371Z,101510.31
2022-10-23T00:18:40.434Z,101519.94
2022-10-23T00:21:08.695Z,101517.31
2022-10-23T00:23:35.282Z,101513.03
2022-10-23T00:26:02.394Z,101513.03
2022-10-23T00:28:28.760Z,101512.19
2022-10-23T00:30:55.183Z,101513.03
2022-10-23T00:33:21.538Z,101510.41
2022-10-23T00:35:47.951Z,101511.34
2022-10-23T00:38:14.479Z,101505.19
2022-10-23T00:40:42.225Z,101505.31
2022-10-23T00:43:18.704Z,101499.22
2022-10-23T00:45:45.665Z,101499.22
2022-10-23T00:48:13.149Z,101502.69
2022-10-23T00:50:40.471Z,101498.41
2022-10-23T00:53:09.783Z,101495.78
2022-10-23T00:55:38.302Z,101493.28
2022-10-23T00:58:04.816Z,101489.75
2022-10-23T01:00:50.781Z,101495.91
2022-10-23T01:03:19.516Z,101502.78
2022-10-23T01:09:01.887Z,101492.38
2022-10-23T01:11:40.735Z,101492.47
2022-10-23T01:14:16.181Z,101504.66
2022-10-23T01:16:48.507Z,101494.22
2022-10-23T01:19:32.927Z,101496.94
2022-10-23T01:22:14.292Z,101482.97
2022-10-23T01:24:59.475Z,101488.19
2022-10-23T01:27:41.399Z,101492.47
2022-10-23T01:30:09.723Z,101487.34
2022-10-23T01:32:50.883Z,101483.88
2022-10-23T01:35:28.923Z,101482.13
2022-10-23T01:38:03.596Z,101480.44
2022-10-23T01:40:37.184Z,101477.03
2022-10-23T01:43:12.323Z,101475.25
2022-10-23T01:45:50.640Z,101475.25
2022-10-23T01:48:21.443Z,101476.91
2022-10-23T01:50:50.579Z,101474.41
2022-10-23T01:53:19.367Z,101467.41
2022-10-23T01:55:47.313Z,101470.03
2022-10-23T01:58:15.554Z,101458.88
2022-10-23T02:00:45.451Z,101457.09
2022-10-23T02:03:15.697Z,101451.03
2022-10-23T02:05:43.331Z,101456.25
2022-10-23T02:08:10.378Z,101444.88
2022-10-23T02:10:55.779Z,101437.16
2022-10-23T02:13:57.170Z,101434.53
2022-10-23T02:16:35.968Z,101438.94
2022-10-23T02:19:28.026Z,101433.72
2022-10-23T02:22:07.873Z,101434.53
2022-10-23T02:24:57.833Z,101427.66
2022-10-23T02:27:31.784Z,101422.44
2022-10-23T02:30:10.903Z,101420.78
2022-10-23T02:32:41.456Z,101402.44
2022-10-23T02:35:08.580Z,101405.97
2022-10-23T02:37:34.906Z,101400.75
2022-10-23T02:40:01.743Z,101406.88
2022-10-23T02:42:44.580Z,101405.97
2022-10-23T02:45:32.486Z,101414.72
2022-10-23T02:48:16.849Z,101412.09
2022-10-23T02:50:54.224Z,101404.28
2022-10-23T02:53:25.562Z,101400.84
2022-10-23T02:56:05.275Z,101402.63
2022-10-23T02:58:44.647Z,101407.84
2022-10-23T03:01:16.156Z,101405.25
2022-10-23T03:03:48.430Z,101401.78
2022-10-23T03:06:14.905Z,101398.34
2022-10-23T03:08:54.352Z,101385.31
2022-10-23T03:11:20.899Z,101382.69
2022-10-23T03:13:47.216Z,101386.13
2022-10-23T03:16:13.562Z,101385.31
2022-10-23T03:18:39.871Z,101384.47
2022-10-23T03:21:06.230Z,101374.06
2022-10-23T03:23:32.688Z,101372.28
2022-10-23T03:25:58.998Z,101365.38
2022-10-23T03:28:25.299Z,101371.44
2022-10-23T03:30:52.079Z,101367.06
2022-10-23T03:33:18.645Z,101361.94
2022-10-23T03:35:44.993Z,101366.34
2022-10-23T03:38:11.337Z,101357.66
2022-10-23T03:40:37.634Z,101357.56
2022-10-23T03:43:06.327Z,101356.72
2022-10-23T03:45:32.689Z,101352.44
2022-10-23T03:47:59.080Z,101355.91
2022-10-23T03:50:25.628Z,101353.28
2022-10-23T03:52:51.935Z,101349.00
2022-10-23T03:55:18.341Z,101335.25
2022-10-23T03:57:44.668Z,101335.16
2022-10-23T04:00:11.423Z,101337.75
2022-10-23T04:02:37.782Z,101333.38
2022-10-23T04:05:04.552Z,101324.72
2022-10-23T04:07:30.850Z,101316.03
2022-10-23T04:09:57.171Z,101310.00
2022-10-23T04:12:23.624Z,101304.78
2022-10-23T04:14:49.969Z,101310.94
2022-10-23T04:17:16.313Z,101303.97
2022-10-23T04:19:42.686Z,101304.78
2022-10-23T04:22:09.029Z,101300.50
2022-10-23T04:24:35.424Z,101295.28
2022-10-23T04:27:01.827Z,101289.13
2022-10-23T04:29:31.470Z,101291.84
2022-10-23T04:31:57.986Z,101293.53
2022-10-23T04:34:24.369Z,101286.63
2022-10-23T04:36:50.673Z,101277.97
2022-10-23T04:39:16.961Z,101282.25
2022-10-23T04:41:43.304Z,101282.25
2022-10-23T04:44:09.664Z,101276.22
2022-10-23T04:46:35.986Z,101275.34
2022-10-23T04:49:02.335Z,101273.72
2022-10-23T04:51:28.677Z,101273.72
2022-10-23T04:53:55.000Z,101274.53
2022-10-23T04:56:21.395Z,101266.00
2022-10-23T04:58:47.833Z,101260.66
2022-10-23T05:01:14.280Z,101265.03
2022-10-23T05:03:40.872Z,101264.22
2022-10-23T05:06:07.347Z,101263.28
2022-10-23T05:08:35.731Z,101260.66
2022-10-23T05:11:02.616Z,101250.34
2022-10-23T05:13:28.976Z,101258.16
2022-10-23T05:15:58.096Z,101260.78
2022-10-23T05:18:29.138Z,101259.00
2022-10-23T05:21:02.224Z,101245.25
2022-10-23T05:23:33.080Z,101256.50
2022-10-23T05:25:59.894Z,101261.59
2022-10-23T05:28:26.188Z,101258.28
2022-10-23T05:30:52.616Z,101263.50
2022-10-23T05:33:19.015Z,101269.44
2022-10-23T05:35:45.562Z,101258.28
2022-10-23T05:38:14.387Z,101257.31
2022-10-23T05:40:40.725Z,101257.31
2022-10-23T05:43:07.077Z,101250.47
2022-10-23T05:45:33.395Z,101248.69
2022-10-23T05:48:10.742Z,101253.06
2022-10-23T05:50:43.277Z,101251.38
2022-10-23T05:53:12.432Z,101247.84
2022-10-23T05:55:38.750Z,101248.78
2022-10-23T05:58:05.533Z,101241.78
2022-10-23T06:00:32.364Z,101240.03
2022-10-23T06:03:01.817Z,101229.72
2022-10-23T06:05:28.277Z,101221.88
2022-10-23T06:08:00.453Z,101231.47
2022-10-23T06:10:27.241Z,101229.72
2022-10-23T06:12:53.615Z,101232.31
2022-10-23T06:15:19.947Z,101218.53
2022-10-23T06:17:46.450Z,101220.22
2022-10-23T06:20:12.956Z,101225.44
2022-10-23T06:22:39.593Z,101214.06
2022-10-23T06:25:06.635Z,101207.16
2022-10-23T06:27:32.991Z,101206.34
2022-10-23T06:29:59.322Z,101204.56
2022-10-23T06:32:25.665Z,101198.53
2022-10-23T06:34:51.965Z,101207.16
2022-10-23T06:37:18.314Z,101202.88
2022-10-23T06:39:44.662Z,101192.47
2022-10-23T06:42:11.051Z,101196.75
2022-10-23T06:44:37.395Z,101199.47
2022-10-23T06:47:04.084Z,101196.84
2022-10-23T06:49:30.459Z,101189.03
2022-10-23T06:51:56.774Z,101182.03
2022-10-23T06:54:23.163Z,101182.13
2022-10-23T06:56:49.603Z,101182.03
2022-10-23T06:59:15.942Z,101172.53
2022-10-23T07:01:42.428Z,101176.94
2022-10-23T07:04:08.964Z,101174.31
2022-10-23T07:06:35.277Z,101169.09
2022-10-23T07:09:01.610Z,101165.69
2022-10-23T07:11:27.908Z,101165.69
2022-10-23T07:13:54.230Z,101176.09
2022-10-23T07:16:22.175Z,101177.84
2022-10-23T07:18:50.277Z,101174.31
2022-10-23T07:21:16.781Z,101181.31
2022-10-23T07:23:43.155Z,101176.09
2022-10-23T07:26:14.349Z,101180.47
2022-10-23T07:28:41.793Z,101181.31
2022-10-23T07:31:08.365Z,101170.91
2022-10-23T07:33:34.665Z,101165.69
2022-10-23T07:36:01.328Z,101169.22
2022-10-23T07:38:27.955Z,101170.91
2022-10-23T07:40:57.597Z,101159.63
2022-10-23T07:43:25.375Z,101168.28
2022-10-23T07:45:53.044Z,101167.44
2022-10-23T07:48:20.911Z,101163.06
2022-10-23T07:50:47.219Z,101168.28
2022-10-23T07:53:19.476Z,101156.19
2022-10-23T07:56:00.051Z,101156.19
2022-10-23T07:58:27.527Z,101153.47
2022-10-23T08:01:01.903Z,101150.88
2022-10-23T08:03:31.120Z,101139.63
2022-10-23T08:05:58.033Z,101150.03
2022-10-23T08:08:25.297Z,101147.44
2022-10-23T08:10:53.819Z,101131.78
2022-10-23T08:13:21.252Z,101137.00
2022-10-23T08:15:49.543Z,101135.31
2022-10-23T08:18:16.001Z,101135.31
2022-10-23T08:20:44.123Z,101129.19
2022-10-23T08:23:12.318Z,101130.00
2022-10-23T08:25:39.752Z,101133.44
2022-10-23T08:28:07.412Z,101130.94
2022-10-23T08:30:34.388Z,101131.78
2022-10-23T08:33:03.475Z,101130.00
2022-10-23T08:35:30.096Z,101123.97
2022-10-23T08:37:56.613Z,101118.75
2022-10-23T08:40:25.058Z,101116.16
2022-10-23T08:43:16.105Z,101113.53
2022-10-23T08:46:08.668Z,101104.88
2022-10-23T08:48:44.120Z,101097.91
2022-10-23T08:51:25.497Z,101097.06
2022-10-23T08:54:13.671Z,101083.19
2022-10-23T08:56:44.267Z,101081.41
2022-10-23T08:59:22.345Z,101086.63
2022-10-23T09:02:24.283Z,101088.41
2022-10-23T09:04:53.259Z,101087.59
2022-10-23T09:07:34.499Z,101083.91
2022-10-23T09:10:24.795Z,101066.63
2022-10-23T09:12:51.130Z,101064.00
2022-10-23T09:15:46.476Z,101061.41
2022-10-23T09:18:15.428Z,101059.63
2022-10-23T09:20:44.530Z,101057.00
2022-10-23T09:23:22.812Z,101056.19
2022-10-23T09:25:55.322Z,101048.38
2022-10-23T09:28:25.152Z,101050.13
2022-10-23T09:30:52.223Z,101054.53
2022-10-23T09:33:23.154Z,101053.59
2022-10-23T09:35:55.845Z,101047.53
2022-10-23T09:38:34.635Z,101053.59
2022-10-23T09:41:27.282Z,101043.28
2022-10-23T09:44:22.132Z,101045.78
2022-10-23T09:46:54.332Z,101033.66
2022-10-23T09:49:29.551Z,101025.84
2022-10-23T09:52:02.044Z,101038.78
2022-10-23T09:54:33.267Z,101024.91
2022-10-23T09:57:14.019Z,101024.06
2022-10-23T09:59:41.797Z,101016.25
2022-10-23T10:02:27.928Z,101018.84
2022-10-23T10:04:54.314Z,101022.41
2022-10-23T10:07:23.846Z,101022.41
2022-10-23T10:09:52.384Z,101007.59
2022-10-23T10:12:31.887Z,101012.81
2022-10-23T10:15:19.950Z,101004.16
2022-10-23T10:18:08.110Z,100997.16
2022-10-23T10:21:13.275Z,101003.31
2022-10-23T10:24:21.474Z,100998.00
2022-10-23T10:26:57.465Z,100987.56
2022-10-23T10:29:31.200Z,100980.72
2022-10-23T10:32:31.292Z,100976.31
2022-10-23T10:35:03.423Z,100973.72
2022-10-23T10:37:53.654Z,100962.47
2022-10-23T10:40:32.700Z,100960.69
2022-10-23T10:43:10.580Z,100954.66
2022-10-23T10:45:53.755Z,100951.06
2022-10-23T10:48:38.219Z,100946.81
2022-10-23T10:51:08.578Z,100939.00
2022-10-23T10:53:50.163Z,100929.41
2022-10-23T10:56:20.418Z,100909.38
2022-10-23T10:58:57.852Z,100908.53
2022-10-23T11:01:30.991Z,100910.34
2022-10-23T11:04:13.333Z,100905.13
2022-10-23T11:06:44.667Z,100917.19
2022-10-23T11:09:21.042Z,100902.50
2022-10-23T11:11:48.606Z,100906.06
2022-10-23T11:14:17.020Z,100910.22
2022-10-23T11:16:48.463Z,100902.41
2022-10-23T11:19:34.197Z,100898.94
2022-10-23T11:22:10.700Z,100898.13
2022-10-23T11:24:49.501Z,100892.09
2022-10-23T11:27:23.119Z,100894.59
2022-10-23T11:30:11.889Z,100883.31
2022-10-23T11:33:00.535Z,100866.72
2022-10-23T11:35:43.764Z,100865.06
2022-10-23T11:38:12.763Z,100856.31
2022-10-23T11:40:59.940Z,100852.88
2022-10-23T11:43:35.611Z,100848.47
2022-10-23T11:46:29.570Z,100849.31
2022-10-23T11:48:57.227Z,100838.88
2022-10-23T11:51:40.716Z,100825.84
2022-10-23T11:54:10.137Z,100830.22
2022-10-23T11:56:52.695Z,100834.50
2022-10-23T11:59:31.733Z,100830.00
2022-10-23T12:02:17.833Z,100816.16
2022-10-23T12:04:50.414Z,100806.44
2022-10-23T12:07:29.661Z,100810.69
2022-10-23T12:09:59.258Z,100826.47
2022-10-23T12:12:42.364Z,100811.63
2022-10-23T12:15:11.360Z,100816.03
2022-10-23T12:17:40.068Z,100810.81
2022-10-23T12:20:12.703Z,100795.06
2022-10-23T12:22:41.974Z,100802.88
2022-10-23T12:25:24.237Z,100789.03
2022-10-23T12:28:12.509Z,100776.00
2022-10-23T12:30:59.883Z,100769.00
2022-10-23T12:33:37.343Z,100761.16
2022-10-23T12:36:34.841Z,100774.22
2022-10-23T12:39:01.898Z,100767.22
2022-10-23T12:41:30.777Z,100766.38
2022-10-23T12:44:03.245Z,100762.97
2022-10-23T12:46:31.672Z,100759.38
2022-10-23T12:48:59.736Z,100764.59
2022-10-23T12:51:34.547Z,100750.75
2022-10-23T12:54:02.469Z,100744.72
2022-10-23T12:56:35.564Z,100736.91
2022-10-23T12:59:02.206Z,100745.41
2022-10-23T13:01:31.706Z,100729.88
2022-10-23T13:04:10.328Z,100717.69
2022-10-23T13:06:39.351Z,100717.69
2022-10-23T13:09:16.334Z,100705.50
2022-10-23T13:11:43.078Z,100705.50
2022-10-23T13:14:13.929Z,100704.53
2022-10-23T13:16:40.332Z,100706.31
2022-10-23T13:19:06.658Z,100708.09
2022-10-23T13:21:33.058Z,100700.28
2022-10-23T13:23:59.528Z,100695.06
2022-10-23T13:26:42.662Z,100694.09
2022-10-23T13:29:35.239Z,100671.59
2022-10-23T13:32:12.014Z,100665.41
2022-10-23T13:34:38.517Z,100668.03
2022-10-23T13:37:25.800Z,100648.13
2022-10-23T13:40:10.025Z,100648.97
2022-10-23T13:42:36.607Z,100636.88
2022-10-23T13:45:03.010Z,100640.31
2022-10-23T13:47:29.310Z,100635.94
2022-10-23T13:49:55.614Z,100636.75
2022-10-23T13:52:23.733Z,100629.66
2022-10-23T13:54:50.604Z,100620.97
2022-10-23T13:57:17.181Z,100621.72
2022-10-23T13:59:43.876Z,100619.09
2022-10-23T14:02:21.001Z,100614.59
2022-10-23T14:04:48.892Z,100611.84
2022-10-23T14:07:15.415Z,100617.91
2022-10-23T14:09:41.812Z,100613.53
2022-10-23T14:12:08.449Z,100599.53
2022-10-23T14:14:34.844Z,100608.06
2022-10-23T14:17:01.156Z,100608.06
2022-10-23T14:19:27.729Z,100599.31
2022-10-23T14:21:54.123Z,100599.19
2022-10-23T14:24:20.536Z,100584.22
2022-10-23T14:26:47.024Z,100589.31
2022-10-23T14:29:21.397Z,100577.81
2022-10-23T14:31:50.465Z,100587.19
2022-10-23T14:34:16.850Z,100587.91
2022-10-23T14:36:49.712Z,100589.56
2022-10-23T14:39:16.915Z,100595.59
2022-10-23T14:41:43.392Z,100597.28
2022-10-23T14:44:09.703Z,100582.44
2022-10-23T14:46:38.078Z,100589.44
2022-10-23T14:49:04.398Z,100594.66
2022-10-23T14:51:30.804Z,100594.53
2022-10-23T14:54:02.735Z,100582.31
2022-10-23T14:56:31.594Z,100578.66
2022-10-23T14:59:02.592Z,100585.66
2022-10-23T15:01:31.499Z,100589.81
2022-10-23T15:03:58.077Z,100569.88
2022-10-23T15:06:24.584Z,100554.22
2022-10-23T15:08:53.027Z,100553.97
2022-10-23T15:11:19.486Z,100559.06
2022-10-23T15:13:45.848Z,100560.72
2022-10-23T15:16:12.574Z,100557.28
2022-10-23T15:18:38.966Z,100546.75
2022-10-23T15:21:07.449Z,100560.59
2022-10-23T15:23:36.204Z,100549.34
2022-10-23T15:26:05.803Z,100539.88
2022-10-23T15:28:33.015Z,100536.31
2022-10-23T15:30:59.436Z,100538.94
2022-10-23T15:33:26.557Z,100520.53
2022-10-23T15:35:53.105Z,100517.09
2022-10-23T15:38:20.392Z,100517.94
2022-10-23T15:40:46.984Z,100523.84
2022-10-23T15:43:14.146Z,100513.41
2022-10-23T15:45:41.330Z,100506.41
2022-10-23T15:48:10.778Z,100507.25
2022-10-23T15:50:37.351Z,100507.94
2022-10-23T15:53:03.859Z,100507.94
2022-10-23T15:55:30.281Z,100499.97
2022-10-23T15:58:01.757Z,100496.56
2022-10-23T16:00:28.149Z,100489.53
2022-10-23T16:02:54.567Z,100486.94
2022-10-23T16:05:20.925Z,100479.94
2022-10-23T16:07:47.235Z,100463.47
2022-10-23T16:10:13.574Z,100461.56
2022-10-23T16:12:39.910Z,100452.88
2022-10-23T16:15:08.005Z,100472.81
2022-10-23T16:17:34.324Z,100467.59
2022-10-23T16:20:00.644Z,100465.81
2022-10-23T16:22:27.069Z,100469.25
2022-10-23T16:24:53.422Z,100472.69
2022-10-23T16:27:19.749Z,100468.16
2022-10-23T16:29:46.279Z,100469.81
2022-10-23T16:32:12.593Z,100477.53
2022-10-23T16:34:38.995Z,100464.34
2022-10-23T16:37:05.292Z,100466.00
2022-10-23T16:39:31.691Z,100465.19
2022-10-23T16:41:58.184Z,100443.22
2022-10-23T16:44:24.612Z,100457.09
2022-10-23T16:46:50.923Z,100457.78
2022-10-23T16:49:17.362Z,100450.69
2022-10-23T16:51:43.860Z,100455.06
2022-10-23T16:54:10.376Z,100448.88
2022-10-23T16:56:36.782Z,100446.97
2022-10-23T16:59:03.871Z,100448.75
2022-10-23T17:01:31.678Z,100464.97
2022-10-23T17:03:58.772Z,100468.44
2022-10-23T17:06:28.602Z,100464.03
2022-10-23T17:08:57.306Z,100456.19
2022-10-23T17:11:26.688Z,100454.41
2022-10-23T17:13:59.705Z,100468.16
2022-10-23T17:16:39.622Z,100462.94
2022-10-23T17:19:15.845Z,100466.25
2022-10-23T17:21:47.491Z,100458.28
2022-10-23T17:24:13.867Z,100458.16
2022-10-23T17:26:40.417Z,100463.38
2022-10-23T17:29:09.293Z,100458.03
2022-10-23T17:31:39.407Z,100447.56
2022-10-23T17:34:09.017Z,100444.03
2022-10-23T17:36:39.752Z,100449.97
2022-10-23T17:39:07.690Z,100448.16
2022-10-23T17:41:34.713Z,100451.47
2022-10-23T17:44:01.184Z,100452.31
2022-10-23T17:46:29.157Z,100444.34
2022-10-23T17:48:59.953Z,100443.34
2022-10-23T17:51:27.913Z,100459.75
2022-10-23T17:53:56.745Z,100452.72
2022-10-23T17:56:25.712Z,100448.34
2022-10-23T17:58:54.520Z,100449.84
2022-10-23T18:01:25.163Z,100451.50
2022-10-23T18:03:53.031Z,100441.06
2022-10-23T18:06:28.906Z,100444.50
2022-10-23T18:08:56.459Z,100437.63
2022-10-23T18:11:28.288Z,100432.41
2022-10-23T18:13:55.100Z,100433.22
2022-10-23T18:16:21.494Z,100425.41
2022-10-23T18:18:48.781Z,100434.91
2022-10-23T18:21:16.801Z,100439.13
2022-10-23T18:23:43.445Z,100429.53
2022-10-23T18:26:21.357Z,100436.41
2022-10-23T18:28:49.379Z,100428.47
2022-10-23T18:31:16.574Z,100434.63
2022-10-23T18:33:43.387Z,100437.09
2022-10-23T18:36:19.832Z,100420.50
2022-10-23T18:38:46.948Z,100401.09
2022-10-23T18:41:13.728Z,100408.00
2022-10-23T18:43:43.712Z,100409.50
2022-10-23T18:46:12.655Z,100418.78
2022-10-23T18:48:39.041Z,100405.72
2022-10-23T18:51:05.526Z,100399.38
2022-10-23T18:53:31.822Z,100391.53
2022-10-23T18:55:58.162Z,100412.31
2022-10-23T18:58:25.099Z,100399.00
2022-10-23T19:00:51.403Z,100398.03
2022-10-23T19:03:17.698Z,100397.06
2022-10-23T19:05:45.423Z,100405.59
2022-10-23T19:08:13.000Z,100396.81
2022-10-23T19:10:42.159Z,100377.56
2022-10-23T19:13:08.508Z,100330.56
2022-10-23T19:15:36.726Z,100369.72
2022-10-23T19:18:07.104Z,100383.47
2022-10-23T19:20:33.809Z,100358.06
2022-10-23T19:23:01.899Z,100358.06
2022-10-23T19:25:32.339Z,100382.25
2022-10-23T19:28:00.129Z,100352.56
2022-10-23T19:30:26.660Z,100373.47
2022-10-23T19:32:53.322Z,100364.63
2022-10-23T19:35:21.473Z,100382.81
2022-10-23T19:37:48.242Z,100373.84
2022-10-23T19:40:15.662Z,100395.59
2022-10-23T19:42:43.046Z,100397.22
2022-10-23T19:45:12.765Z,100402.31
2022-10-23T19:47:39.631Z,100407.53
2022-10-23T19:50:06.884Z,100409.22
2022-10-23T19:52:34.480Z,100418.72
2022-10-23T19:55:01.399Z,100437.81
2022-10-23T19:57:30.293Z,100424.75
2022-10-23T19:59:56.613Z,100440.28
2022-10-23T20:02:23.090Z,100453.22
2022-10-23T20:04:49.510Z,100448.69
2022-10-23T20:07:16.039Z,100444.28
2022-10-23T20:09:42.351Z,100444.97
2022-10-23T20:12:08.697Z,100452.13
2022-10-23T20:14:35.090Z,100451.44
2022-10-23T20:17:02.412Z,100459.28
2022-10-23T20:19:28.879Z,100457.63
2022-10-23T20:21:55.205Z,100462.84
2022-10-23T20:24:22.050Z,100468.91
2022-10-23T20:26:53.329Z,100468.09
2022-10-23T20:29:20.844Z,100471.66
2022-10-23T20:31:47.255Z,100483.75
2022-10-23T20:34:13.646Z,100484.72
2022-10-23T20:36:46.370Z,100492.41
2022-10-23T20:39:17.992Z,100497.78
2022-10-23T20:41:45.161Z,100488.97
2022-10-23T20:44:14.436Z,100498.63
2022-10-23T20:46:42.071Z,100495.16
2022-10-23T20:49:09.062Z,100504.66
2022-10-23T20:51:36.125Z,100508.22
2022-10-23T20:54:03.498Z,100510.03
2022-10-23T20:56:32.364Z,100517.03
2022-10-23T20:59:06.526Z,100508.34
2022-10-23T21:01:34.063Z,100502.31
2022-10-23T21:04:02.037Z,100525.97
2022-10-23T21:06:41.005Z,100498.03
2022-10-23T21:09:17.244Z,100505.88
2022-10-23T21:11:43.589Z,100504.94
2022-10-23T21:14:09.895Z,100503.13
2022-10-23T21:16:41.255Z,100517.16
2022-10-23T21:19:10.249Z,100519.75
2022-10-23T21:21:36.579Z,100528.44
2022-10-23T21:24:07.400Z,100512.91
2022-10-23T21:26:33.972Z,100504.09
2022-10-23T21:29:17.537Z,100506.69
2022-10-23T21:31:45.410Z,100505.06
2022-10-23T21:36:53.963Z,100503.25
2022-10-23T21:39:24.313Z,100498.44
2022-10-23T21:41:50.620Z,100503.53
2022-10-23T21:44:16.927Z,100494.88
2022-10-23T21:46:44.134Z,100501.88
2022-10-23T21:49:11.633Z,100509.72
2022-10-23T21:51:38.503Z,100515.91
2022-10-23T21:54:06.758Z,100518.53
2022-10-23T21:56:37.217Z,100513.31
2022-10-23T22:01:33.123Z,100505.59
2022-10-23T22:03:59.505Z,100515.06
2022-10-23T22:06:28.461Z,100524.69
2022-10-23T22:08:57.264Z,100524.69
2022-10-23T22:11:23.862Z,100517.00
2022-10-23T22:13:50.391Z,100524.84
2022-10-23T22:16:17.199Z,100502.13
2022-10-23T22:18:44.442Z,100495.25
2022-10-23T22:21:14.723Z,100505.69
2022-10-23T22:23:41.548Z,100504.06
2022-10-23T22:26:18.502Z,100505.69
2022-10-23T22:28:44.910Z,100510.09
2022-10-23T22:31:16.492Z,100504.88
2022-10-23T22:33:43.051Z,100506.69
2022-10-23T22:36:09.508Z,100503.22
2022-10-23T22:38:36.991Z,100498.84
2022-10-23T22:41:04.201Z,100500.59
2022-10-23T22:43:31.003Z,100507.63
2022-10-23T22:46:09.555Z,100496.38
2022-10-23T22:48:36.508Z,100499.78
2022-10-23T22:51:03.999Z,100493.75
2022-10-23T22:53:31.399Z,100480.81
2022-10-23T22:55:57.724Z,100481.66
2022-10-23T22:58:25.153Z,100485.06
2022-10-23T23:00:53.354Z,100492.91
2022-10-23T23:03:19.757Z,100481.66
2022-10-23T23:05:47.866Z,100483.44
2022-10-23T23:08:14.972Z,100489.47
2022-10-23T23:10:41.512Z,100483.44
2022-10-23T23:13:07.864Z,100486.06
2022-10-23T23:15:39.928Z,100468.59
2022-10-23T23:18:06.353Z,100468.72
2022-10-23T23:20:32.676Z,100466.91
2022-10-23T23:22:58.980Z,100465.97
2022-10-23T23:25:25.283Z,100462.53
2022-10-23T23:27:51.583Z,100460.88
2022-10-23T23:30:18.056Z,100454.84
2022-10-23T23:32:47.504Z,100448.78
2022-10-23T23:35:14.333Z,100449.63
2022-10-23T23:37:42.952Z,100454.84
2022-10-23T23:40:09.770Z,100442.72
2022-10-23T23:42:36.092Z,100447.94
2022-10-23T23:45:13.598Z,100438.31
2022-10-23T23:47:41.047Z,100436.69
2022-10-23T23:50:08.652Z,100438.44
2022-10-23T23:52:35.118Z,100434.06
2022-10-23T23:55:01.443Z,100430.63
2022-10-23T23:57:27.798Z,100432.41
2022-10-23T23:59:54.204Z,100428.84
